Portada
METAR-TAF:

METAR-TAF

Aeroports :

Aeroport de Lampedusa

Lampedusa, Itàlia

latitud: 35-30N, longitud: 012-36E, altitud: 16 m

Observació

L'informe es va fer fa 3 hores i 35 minuts, a les 20:50 UTC
Vent 2 kt del Sud
Temperatura 13°C
Humitat 77%
Pressió 1016 hPa
Visibilitat 10 km o més
sense núvols per sota de 1500 mi sense presència de cumulonimbus.

METAR: LICD 192050Z 19002KT CAVOK 13/09 Q1016

Hora: 01:25 (00:25 UTC)

Pronòstic

L'informe es va fer fa 7 hores i 25 minuts, a les 17:00 UTC
Pronòstic vàlid del 19 a les 18 UTC al 20 a les 18 UTC
Vent 10 kt del Oest/Nord-Oest
Visibilitat 10 km o més
Núvols disperses a una alçada de 3000 ft
Temporalment
l' 19 a les 21 UTC al 20 a les 06 UTC
Visibilitat: 4000 m
xàfecs de pluja

TAF: LICD 191700Z 1918/2018 30010KT 9999 SCT030 TEMPO 1921/2006 4000 SHRA

Observacions i pronòstics meteorològics de més de 4000 aeroports (METAR i TAF).

Les estacions disponibles són els punts grocs i vermells al mapa.

Posi el ratolí al punt desitjat per veure el nom de l'estació.

Feu clic per veure les observacions i els pronòstics meteorològics.

Per canviar el mapa: feu clic els botons verds amb una creu de color negre per apropar; al botó verd amb un guió per allunyar la imatge; o en les fletxes verdes per a mapes adjacents.


METAR-TAF: